Hancock, Maryland
Current Conditions -  °F | °C
As of 2:53 AM on Thursday 27 Nov 2014 (Local Time) from KMRB Reporting Station
Overcast Overcast  
Wind Chill: 35°   Ceiling: 2000
Heat Index: 35°   Visibility: 7mi
Dew Point: 31°   Wind: 0mph
Humidity: 85%   Direction: NA
Pressure: 30.01"   Gusts: NA
Location:  39.7°N, 78.18°W
Report Text: KMRB 270753Z AUTO 00000KT 7SM OVC020 02/M01 A3001 RMK AO2 SLP167 T00171006 TSNO
Loading
Personal Weather Stations






























Interactive Weather Map New forecast layout! Learn more

10-Day Weather Forecast

Advertisements
Track Severe Weather on mobile